createdAt,value
2022-08-22T00:02:43.484Z,12.65
2022-08-22T00:02:57.905Z,8.45
2022-08-22T00:03:18.615Z,12.38
2022-08-22T00:07:16.914Z,14.15
2022-08-22T00:11:11.975Z,10.90
2022-08-22T00:15:16.777Z,7.72
2022-08-22T00:19:30.897Z,6.65
2022-08-22T00:23:42.725Z,9.50
2022-08-22T00:27:45.044Z,8.52
2022-08-22T00:31:39.801Z,11.50
2022-08-22T00:35:51.070Z,10.63
2022-08-22T00:39:55.477Z,17.00
2022-08-22T00:44:17.034Z,10.05
2022-08-22T00:48:40.130Z,11.07
2022-08-22T00:53:00.479Z,9.07
2022-08-22T00:57:09.167Z,10.73
2022-08-22T01:01:12.644Z,11.05
2022-08-22T01:05:31.018Z,12.02
2022-08-22T01:09:34.105Z,9.45
2022-08-22T01:13:36.698Z,9.98
2022-08-22T01:17:54.848Z,11.18
2022-08-22T01:22:21.756Z,10.33
2022-08-22T01:27:26.032Z,7.85
2022-08-22T01:30:47.466Z,9.57
2022-08-22T01:34:53.025Z,9.00
2022-08-22T01:39:02.098Z,7.13
2022-08-22T01:43:15.339Z,8.52
2022-08-22T01:47:09.712Z,7.63
2022-08-22T01:51:20.970Z,8.55
2022-08-22T01:55:22.477Z,9.05
2022-08-22T01:59:11.038Z,8.75
2022-08-22T02:03:01.465Z,10.25
2022-08-22T02:07:31.513Z,10.73
2022-08-22T02:12:00.278Z,9.35
2022-08-22T02:15:50.141Z,5.65
2022-08-22T02:19:51.995Z,7.55
2022-08-22T02:24:01.754Z,7.30
2022-08-22T02:27:59.443Z,8.27
2022-08-22T02:32:01.615Z,9.75
2022-08-22T02:35:54.581Z,7.55
2022-08-22T02:39:44.199Z,5.72
2022-08-22T02:43:35.677Z,7.78
2022-08-22T02:47:46.905Z,6.15
2022-08-22T02:51:47.618Z,6.03
2022-08-22T02:56:06.592Z,6.63
2022-08-22T03:00:32.309Z,5.28
2022-08-22T03:04:45.553Z,6.95
2022-08-22T03:08:31.747Z,10.57
2022-08-22T03:12:28.590Z,7.68
2022-08-22T03:16:42.579Z,9.07
2022-08-22T03:21:10.553Z,7.28
2022-08-22T03:25:15.722Z,6.30
2022-08-22T03:29:04.476Z,5.93
2022-08-22T03:32:50.536Z,5.88
2022-08-22T03:36:38.166Z,7.78
2022-08-22T03:40:22.322Z,7.88
2022-08-22T03:44:24.449Z,6.80
2022-08-22T03:48:37.924Z,7.93
2022-08-22T03:52:29.522Z,7.40
2022-08-22T03:56:42.200Z,8.20
2022-08-22T04:00:39.588Z,7.97
2022-08-22T04:05:07.319Z,8.13
2022-08-22T04:09:28.593Z,11.65
2022-08-22T04:13:55.871Z,10.93
2022-08-22T04:17:56.653Z,8.50
2022-08-22T04:22:09.931Z,8.40
2022-08-22T04:26:10.703Z,9.48
2022-08-22T04:30:03.996Z,11.93
2022-08-22T04:33:56.519Z,12.23
2022-08-22T04:38:05.650Z,13.68
2022-08-22T04:41:54.109Z,10.10
2022-08-22T04:45:54.530Z,18.10
2022-08-22T04:49:49.874Z,12.57
2022-08-22T04:53:38.716Z,15.27
2022-08-22T04:57:51.452Z,14.52
2022-08-22T05:01:56.981Z,9.82
2022-08-22T05:05:49.857Z,10.40
2022-08-22T05:09:35.692Z,16.58
2022-08-22T05:13:39.107Z,20.98
2022-08-22T05:17:24.951Z,7.45
2022-08-22T05:21:13.943Z,7.85
2022-08-22T05:25:14.970Z,8.38
2022-08-22T05:29:02.310Z,9.13
2022-08-22T05:33:13.033Z,12.45
2022-08-22T05:37:19.395Z,9.73
2022-08-22T05:41:09.261Z,13.90
2022-08-22T05:44:51.430Z,12.85
2022-08-22T05:48:42.535Z,14.02
2022-08-22T05:52:47.208Z,11.23
2022-08-22T05:56:42.290Z,9.23
2022-08-22T06:00:29.423Z,13.23
2022-08-22T06:04:31.553Z,7.90
2022-08-22T06:08:58.480Z,14.10
2022-08-22T06:12:48.401Z,7.10
2022-08-22T06:16:48.147Z,9.98
2022-08-22T06:20:50.492Z,8.82
2022-08-22T06:24:40.425Z,13.60
2022-08-22T06:28:29.464Z,11.98
2022-08-22T06:32:59.782Z,7.72
2022-08-22T06:36:53.598Z,10.43
2022-08-22T06:40:35.498Z,10.02
2022-08-22T06:44:22.927Z,7.15
2022-08-22T06:48:07.880Z,9.77
2022-08-22T06:51:53.624Z,10.00
2022-08-22T06:55:39.066Z,12.18
2022-08-22T06:59:35.282Z,9.57
2022-08-22T07:03:27.973Z,12.45
2022-08-22T07:07:24.779Z,9.68
2022-08-22T07:11:32.609Z,12.80
2022-08-22T07:15:36.602Z,17.40
2022-08-22T07:19:30.344Z,11.40
2022-08-22T07:23:45.070Z,8.32
2022-08-22T07:28:00.985Z,11.00
2022-08-22T07:31:56.372Z,7.32
2022-08-22T07:35:53.306Z,12.45
2022-08-22T07:39:56.552Z,9.60
2022-08-22T07:44:35.973Z,10.38
2022-08-22T07:48:29.419Z,11.95
2022-08-22T07:52:15.276Z,14.07
2022-08-22T07:56:00.022Z,12.30
2022-08-22T08:00:03.072Z,15.68
2022-08-22T08:03:55.973Z,11.60
2022-08-22T08:07:56.344Z,9.27
2022-08-22T08:11:42.434Z,23.33
2022-08-22T08:15:24.978Z,14.88
2022-08-22T08:19:10.328Z,12.88
2022-08-22T08:22:58.569Z,8.98
2022-08-22T08:27:04.586Z,16.33
2022-08-22T08:30:55.343Z,9.50
2022-08-22T08:34:39.373Z,12.98
2022-08-22T08:38:29.327Z,8.45
2022-08-22T08:42:58.817Z,9.80
2022-08-22T08:50:55.849Z,9.90
2022-08-22T08:54:51.635Z,15.77
2022-08-22T08:58:54.861Z,14.63
2022-08-22T09:02:50.249Z,8.45
2022-08-22T09:06:59.319Z,6.78
2022-08-22T09:11:16.750Z,10.98
2022-08-22T09:15:25.647Z,10.57
2022-08-22T09:19:43.216Z,4.10
2022-08-22T09:23:37.323Z,7.47
2022-08-22T09:28:20.183Z,4.90
2022-08-22T09:32:28.531Z,5.78
2022-08-22T09:36:22.849Z,8.32
2022-08-22T09:44:09.974Z,7.05
2022-08-22T09:48:06.959Z,5.78
2022-08-22T09:52:32.002Z,4.65
2022-08-22T09:56:29.145Z,5.18
2022-08-22T10:00:13.976Z,3.88
2022-08-22T10:08:31.355Z,5.38
2022-08-22T10:12:35.148Z,4.57
2022-08-22T10:16:46.269Z,8.63
2022-08-22T10:20:36.862Z,5.72
2022-08-22T10:24:50.477Z,4.70
2022-08-22T10:28:45.534Z,6.22
2022-08-22T10:32:46.540Z,4.30
2022-08-22T10:36:41.798Z,7.40
2022-08-22T10:40:47.012Z,7.75
2022-08-22T10:45:03.495Z,6.13
2022-08-22T10:48:54.138Z,6.75
2022-08-22T10:53:11.771Z,2.30
2022-08-22T10:57:10.923Z,4.03
2022-08-22T11:01:01.493Z,5.93
2022-08-22T11:05:24.370Z,3.95
2022-08-22T11:09:38.603Z,2.95
2022-08-22T11:13:36.834Z,2.50
2022-08-22T11:17:35.577Z,5.95
2022-08-22T11:21:40.810Z,3.25
2022-08-22T11:25:52.407Z,2.13
2022-08-22T11:29:38.808Z,1.73
2022-08-22T11:33:46.589Z,1.83
2022-08-22T11:37:56.290Z,2.28
2022-08-22T11:42:21.814Z,3.88
2022-08-22T11:46:24.790Z,6.50
2022-08-22T11:50:36.631Z,3.38
2022-08-22T11:54:57.969Z,3.15
2022-08-22T11:58:47.650Z,2.88
2022-08-22T12:02:53.804Z,3.72
2022-08-22T12:07:03.503Z,2.30
2022-08-22T12:11:12.483Z,1.13
2022-08-22T12:15:19.396Z,1.98
2022-08-22T12:19:27.934Z,3.85
2022-08-22T12:23:43.363Z,2.45
2022-08-22T12:27:56.303Z,1.42
2022-08-22T12:32:01.588Z,3.87
2022-08-22T12:36:18.344Z,4.93
2022-08-22T12:40:26.376Z,4.72
2022-08-22T12:44:24.059Z,19.70
2022-08-22T12:48:07.117Z,1.67
2022-08-22T12:52:12.974Z,3.15
2022-08-22T12:55:58.001Z,2.15
2022-08-22T12:59:54.919Z,5.15
2022-08-22T13:03:56.137Z,1.25
2022-08-22T13:07:41.492Z,3.85
2022-08-22T13:11:25.641Z,1.10
2022-08-22T13:15:28.608Z,5.43
2022-08-22T13:19:19.370Z,0.88
2022-08-22T13:23:25.578Z,0.70
2022-08-22T13:27:17.050Z,2.53
2022-08-22T13:31:04.961Z,1.30
2022-08-22T13:35:09.351Z,0.80
2022-08-22T13:39:03.166Z,5.78
2022-08-22T13:42:54.132Z,5.05
2022-08-22T13:46:57.969Z,1.98
2022-08-22T13:51:11.181Z,4.53
2022-08-22T13:54:53.598Z,3.90
2022-08-22T13:58:42.851Z,1.77
2022-08-22T14:02:36.558Z,4.88
2022-08-22T14:06:32.889Z,1.15
2022-08-22T14:10:29.615Z,2.95
2022-08-22T14:14:14.568Z,0.90
2022-08-22T14:18:20.922Z,4.65
2022-08-22T14:22:31.707Z,1.42
2022-08-22T14:26:32.914Z,2.35
2022-08-22T14:30:24.456Z,1.33
2022-08-22T14:34:14.366Z,2.30
2022-08-22T14:38:35.129Z,4.85
2022-08-22T14:42:38.730Z,1.77
2022-08-22T14:46:36.538Z,2.25
2022-08-22T14:50:37.632Z,2.75
2022-08-22T14:54:29.194Z,7.75
2022-08-22T14:58:18.749Z,1.13
2022-08-22T15:02:14.286Z,2.60
2022-08-22T15:06:03.400Z,3.45
2022-08-22T15:09:54.938Z,5.72
2022-08-22T15:13:40.086Z,1.23
2022-08-22T15:17:53.352Z,3.03
2022-08-22T15:21:37.219Z,1.80
2022-08-22T15:25:28.765Z,4.30
2022-08-22T15:29:23.659Z,0.95
2022-08-22T15:33:33.703Z,2.05
2022-08-22T15:37:18.217Z,1.60
2022-08-22T15:41:26.178Z,2.15
2022-08-22T15:45:33.682Z,1.40
2022-08-22T15:49:21.748Z,1.95
2022-08-22T15:53:30.046Z,1.60
2022-08-22T15:57:40.015Z,3.05
2022-08-22T16:01:25.451Z,2.50
2022-08-22T16:05:07.295Z,1.17
2022-08-22T16:08:52.321Z,1.38
2022-08-22T16:12:44.176Z,0.70
2022-08-22T16:16:25.926Z,0.88
2022-08-22T16:20:19.905Z,2.53
2022-08-22T16:24:05.329Z,1.67
2022-08-22T16:27:55.254Z,0.80
2022-08-22T16:31:49.062Z,2.00
2022-08-22T16:36:23.310Z,0.50
2022-08-22T16:40:14.778Z,0.70
2022-08-22T16:44:29.985Z,1.60
2022-08-22T16:48:27.106Z,0.63
2022-08-22T16:52:22.311Z,0.68
2022-08-22T16:56:25.582Z,0.95
2022-08-22T17:00:40.082Z,2.63
2022-08-22T17:04:57.972Z,1.20
2022-08-22T17:09:16.325Z,0.70
2022-08-22T17:13:19.703Z,2.55
2022-08-22T17:17:09.755Z,0.95
2022-08-22T17:21:11.708Z,1.58
2022-08-22T17:25:26.325Z,1.42
2022-08-22T17:29:26.437Z,0.90
2022-08-22T17:33:23.484Z,0.95
2022-08-22T17:37:41.419Z,1.17
2022-08-22T17:42:00.808Z,1.85
2022-08-22T17:46:16.436Z,1.23
2022-08-22T17:50:10.713Z,1.48
2022-08-22T17:54:05.743Z,1.65
2022-08-22T17:57:59.076Z,0.82
2022-08-22T18:01:55.311Z,4.20
2022-08-22T18:05:53.483Z,2.13
2022-08-22T18:13:44.390Z,2.00
2022-08-22T18:17:39.566Z,1.08
2022-08-22T18:21:26.038Z,1.40
2022-08-22T18:25:21.841Z,1.50
2022-08-22T18:29:24.527Z,1.40
2022-08-22T18:33:14.708Z,2.40
2022-08-22T18:37:35.576Z,2.55
2022-08-22T18:41:37.819Z,5.63
2022-08-22T18:45:47.662Z,3.92
2022-08-22T18:55:10.504Z,3.72
2022-08-22T18:59:13.195Z,3.20
2022-08-22T19:03:39.389Z,5.30
2022-08-22T19:07:58.883Z,2.70
2022-08-22T19:12:06.532Z,7.45
2022-08-22T19:15:57.546Z,5.22
2022-08-22T19:20:26.113Z,8.10
2022-08-22T19:24:56.542Z,7.70
2022-08-22T19:28:40.622Z,7.10
2022-08-22T19:32:47.072Z,6.38
2022-08-22T19:36:32.992Z,4.50
2022-08-22T19:40:49.514Z,4.63
2022-08-22T19:44:34.802Z,5.32
2022-08-22T19:48:27.097Z,3.90
2022-08-22T19:52:26.855Z,5.57
2022-08-22T19:56:12.769Z,6.35
2022-08-22T20:00:04.085Z,3.58
2022-08-22T20:04:23.789Z,2.88
2022-08-22T20:08:25.521Z,5.07
2022-08-22T20:12:46.218Z,6.65
2022-08-22T20:17:07.762Z,10.60
2022-08-22T20:21:01.061Z,8.07
2022-08-22T20:24:54.690Z,13.40
2022-08-22T20:28:50.729Z,8.45
2022-08-22T20:32:39.338Z,4.97
2022-08-22T20:36:33.344Z,3.95
2022-08-22T20:40:56.319Z,3.65
2022-08-22T20:44:41.443Z,4.07
2022-08-22T20:48:34.169Z,2.80
2022-08-22T20:52:37.785Z,7.28
2022-08-22T20:56:59.437Z,4.82
2022-08-22T21:00:48.427Z,4.65
2022-08-22T21:05:00.379Z,3.85
2022-08-22T21:08:43.302Z,4.60
2022-08-22T21:12:26.393Z,3.50
2022-08-22T21:16:33.018Z,5.10
2022-08-22T21:20:23.338Z,6.70
2022-08-22T21:24:11.287Z,7.38
2022-08-22T21:31:59.164Z,5.43
2022-08-22T21:36:00.627Z,8.50
2022-08-22T21:39:48.019Z,5.53
2022-08-22T21:43:36.756Z,3.63
2022-08-22T21:47:32.115Z,6.32
2022-08-22T21:51:41.929Z,4.75
2022-08-22T21:55:28.008Z,3.95
2022-08-22T21:59:51.828Z,5.32
2022-08-22T22:03:40.694Z,6.45
2022-08-22T22:07:28.269Z,5.50
2022-08-22T22:11:15.142Z,9.02
2022-08-22T22:15:01.162Z,8.65
2022-08-22T22:18:43.008Z,6.28
2022-08-22T22:22:24.820Z,5.40
2022-08-22T22:26:11.807Z,4.53
2022-08-22T22:29:53.673Z,6.33
2022-08-22T22:33:38.552Z,9.38
2022-08-22T22:37:20.414Z,6.45
2022-08-22T22:41:02.218Z,7.70
2022-08-22T22:44:44.050Z,6.03
2022-08-22T22:48:29.635Z,8.43
2022-08-22T22:52:11.847Z,5.32
2022-08-22T22:55:59.585Z,8.15
2022-08-22T22:59:44.933Z,5.03
2022-08-22T23:03:26.848Z,5.18
2022-08-22T23:07:11.933Z,4.97
2022-08-22T23:10:56.312Z,3.65
2022-08-22T23:14:43.478Z,4.70
2022-08-22T23:18:30.197Z,3.63
2022-08-22T23:22:12.541Z,3.07
2022-08-22T23:25:54.381Z,4.20
2022-08-22T23:29:38.715Z,2.97
2022-08-22T23:33:22.932Z,3.05
2022-08-22T23:37:08.943Z,3.40
2022-08-22T23:40:53.015Z,3.22
2022-08-22T23:44:38.825Z,4.18
2022-08-22T23:48:22.984Z,2.72
2022-08-22T23:52:08.952Z,3.20
2022-08-22T23:55:53.151Z,2.92
2022-08-22T23:59:43.372Z,4.03
